Terminal Aerodrome Forecast
Issued by NWS Tuscon, AZ

Home | Current Version | Previous Version | Text Only | Print | Product List | Glossary On
Versions: 1 2 3 4 5 6 7 8 9 10 11 12 13 14 15
000
FTUS45 KTWC 012300
TAFTUS
TAF
KTUS 012338Z 0200/0224 21013G20KT P6SM SCT080 BKN200
     FM020200 20008KT P6SM SCT070 BKN200
     FM021200 15007KT P6SM VCSH SCT050 BKN100
     FM021700 17014G22KT P6SM VCSH BKN050
     FM022100 24020G30KT P6SM VCSH SCT035 BKN050=

USA.gov is the U.S. government's official web portal to all federal, state and local government web resources and services.